sensor_id;sensor_type;location;lat;lon;timestamp;pressure;altitude;pressure_sealevel;temperature;humidity
85511;BME280;75921;51.616;11.880;2024-03-23T00:53:47;99216.88;;;8.65;84.23
85511;BME280;75921;51.616;11.880;2024-03-23T00:56:12;99203.97;;;8.61;84.41
85511;BME280;75921;51.616;11.880;2024-03-23T00:58:38;99200.66;;;8.59;84.37
85511;BME280;75921;51.616;11.880;2024-03-23T01:01:03;99187.22;;;8.59;84.32
85511;BME280;75921;51.616;11.880;2024-03-23T01:03:29;99176.81;;;8.56;84.64
85511;BME280;75921;51.616;11.880;2024-03-23T01:05:54;99171.41;;;8.56;84.40
85511;BME280;75921;51.616;11.880;2024-03-23T01:08:20;99165.69;;;8.59;83.69
85511;BME280;75921;51.616;11.880;2024-03-23T01:10:58;99170.84;;;8.60;84.06
85511;BME280;75921;51.616;11.880;2024-03-23T01:13:24;99168.63;;;8.64;84.19
85511;BME280;75921;51.616;11.880;2024-03-23T01:15:50;99172.34;;;8.63;84.25
85511;BME280;75921;51.616;11.880;2024-03-23T01:18:15;99169.00;;;8.61;84.08
85511;BME280;75921;51.616;11.880;2024-03-23T01:20:40;99167.34;;;8.60;84.20
85511;BME280;75921;51.616;11.880;2024-03-23T01:23:05;99160.66;;;8.56;84.10
85511;BME280;75921;51.616;11.880;2024-03-23T01:25:30;99158.34;;;8.53;84.27
85511;BME280;75921;51.616;11.880;2024-03-23T01:27:56;99159.38;;;8.52;84.51
85511;BME280;75921;51.616;11.880;2024-03-23T01:30:21;99166.81;;;8.50;84.54
85511;BME280;75921;51.616;11.880;2024-03-23T01:32:46;99157.91;;;8.49;85.14
85511;BME280;75921;51.616;11.880;2024-03-23T01:35:12;99149.00;;;8.49;84.36
85511;BME280;75921;51.616;11.880;2024-03-23T01:37:37;99149.34;;;8.46;84.47
85511;BME280;75921;51.616;11.880;2024-03-23T01:40:02;99146.88;;;8.44;84.69
85511;BME280;75921;51.616;11.880;2024-03-23T01:42:29;99151.03;;;8.47;84.72
85511;BME280;75921;51.616;11.880;2024-03-23T01:44:54;99138.81;;;8.44;84.77
85511;BME280;75921;51.616;11.880;2024-03-23T01:47:19;99142.97;;;8.47;84.37
85511;BME280;75921;51.616;11.880;2024-03-23T01:49:45;99142.97;;;8.47;84.50
85511;BME280;75921;51.616;11.880;2024-03-23T01:52:10;99135.72;;;8.47;84.25
85511;BME280;75921;51.616;11.880;2024-03-23T01:54:35;99131.56;;;8.45;84.32
85511;BME280;75921;51.616;11.880;2024-03-23T01:57:01;99128.66;;;8.46;84.10
85511;BME280;75921;51.616;11.880;2024-03-23T01:59:26;99119.75;;;8.46;84.18
85511;BME280;75921;51.616;11.880;2024-03-23T02:01:51;99106.78;;;8.49;83.92
85511;BME280;75921;51.616;11.880;2024-03-23T02:04:16;99104.91;;;8.50;84.11
85511;BME280;75921;51.616;11.880;2024-03-23T02:06:42;99103.25;;;8.49;83.81
85511;BME280;75921;51.616;11.880;2024-03-23T02:09:07;99097.88;;;8.49;83.98
85511;BME280;75921;51.616;11.880;2024-03-23T02:11:32;99094.34;;;8.48;83.94
85511;BME280;75921;51.616;11.880;2024-03-23T02:13:58;99101.97;;;8.45;84.53
85511;BME280;75921;51.616;11.880;2024-03-23T02:16:23;99091.41;;;8.28;84.92
85511;BME280;75921;51.616;11.880;2024-03-23T02:18:48;99077.28;;;8.41;84.54
85511;BME280;75921;51.616;11.880;2024-03-23T02:21:13;99084.16;;;8.44;83.94
85511;BME280;75921;51.616;11.880;2024-03-23T02:23:39;99090.16;;;8.46;84.03
85511;BME280;75921;51.616;11.880;2024-03-23T02:26:04;99088.50;;;8.45;83.86
85511;BME280;75921;51.616;11.880;2024-03-23T02:28:29;99088.03;;;8.41;84.04
85511;BME280;75921;51.616;11.880;2024-03-23T02:30:54;99079.78;;;8.43;84.00
85511;BME280;75921;51.616;11.880;2024-03-23T02:33:20;99072.72;;;8.42;83.78
85511;BME280;75921;51.616;11.880;2024-03-23T02:35:45;99080.81;;;8.42;83.68
85511;BME280;75921;51.616;11.880;2024-03-23T02:38:11;99076.41;;;8.34;84.28
85511;BME280;75921;51.616;11.880;2024-03-23T02:40:36;99070.63;;;8.37;83.76
85511;BME280;75921;51.616;11.880;2024-03-23T02:43:04;99068.19;;;8.42;83.80
85511;BME280;75921;51.616;11.880;2024-03-23T02:45:29;99060.28;;;8.41;84.02
85511;BME280;75921;51.616;11.880;2024-03-23T02:47:55;99040.00;;;8.38;83.93
85511;BME280;75921;51.616;11.880;2024-03-23T02:50:21;99047.88;;;8.40;83.79
85511;BME280;75921;51.616;11.880;2024-03-23T02:52:47;99054.66;;;8.36;83.66
85511;BME280;75921;51.616;11.880;2024-03-23T02:55:12;99053.28;;;8.40;83.58
85511;BME280;75921;51.616;11.880;2024-03-23T02:57:38;99050.31;;;8.35;83.66
85511;BME280;75921;51.616;11.880;2024-03-23T03:00:03;99047.41;;;8.36;84.08
85511;BME280;75921;51.616;11.880;2024-03-23T03:02:30;99057.34;;;8.36;83.79
85511;BME280;75921;51.616;11.880;2024-03-23T03:04:55;99044.28;;;8.33;84.20
85511;BME280;75921;51.616;11.880;2024-03-23T03:07:20;99060.38;;;8.11;85.49
85511;BME280;75921;51.616;11.880;2024-03-23T03:09:45;99056.66;;;8.12;84.73
85511;BME280;75921;51.616;11.880;2024-03-23T03:12:10;99052.25;;;8.26;84.13
85511;BME280;75921;51.616;11.880;2024-03-23T03:14:36;99050.41;;;8.26;83.79
85511;BME280;75921;51.616;11.880;2024-03-23T03:17:01;99048.84;;;8.32;83.72
85511;BME280;75921;51.616;11.880;2024-03-23T03:19:26;99052.53;;;8.31;83.64
85511;BME280;75921;51.616;11.880;2024-03-23T03:21:52;99051.88;;;8.29;83.93
85511;BME280;75921;51.616;11.880;2024-03-23T03:24:18;99044.00;;;8.27;83.72
85511;BME280;75921;51.616;11.880;2024-03-23T03:26:43;99027.84;;;8.27;83.82
85511;BME280;75921;51.616;11.880;2024-03-23T03:29:09;99010.03;;;8.26;83.73
85511;BME280;75921;51.616;11.880;2024-03-23T03:31:34;99007.56;;;8.25;83.78
85511;BME280;75921;51.616;11.880;2024-03-23T03:33:59;99011.09;;;8.25;84.44
85511;BME280;75921;51.616;11.880;2024-03-23T03:36:25;99009.59;;;8.23;83.99
85511;BME280;75921;51.616;11.880;2024-03-23T03:38:50;99006.72;;;8.24;83.82
85511;BME280;75921;51.616;11.880;2024-03-23T03:41:15;99011.63;;;8.21;83.80
85511;BME280;75921;51.616;11.880;2024-03-23T03:43:41;99000.88;;;8.21;84.17
85511;BME280;75921;51.616;11.880;2024-03-23T03:46:06;98977.25;;;8.16;84.15
85511;BME280;75921;51.616;11.880;2024-03-23T03:48:33;98957.41;;;8.17;84.21
85511;BME280;75921;51.616;11.880;2024-03-23T03:50:59;98957.41;;;8.17;84.02
85511;BME280;75921;51.616;11.880;2024-03-23T03:53:25;98966.50;;;8.16;83.79
85511;BME280;75921;51.616;11.880;2024-03-23T03:55:50;98968.38;;;8.16;84.22
85511;BME280;75921;51.616;11.880;2024-03-23T03:58:15;98978.94;;;8.17;83.74
85511;BME280;75921;51.616;11.880;2024-03-23T04:00:40;98970.22;;;8.15;83.97
85511;BME280;75921;51.616;11.880;2024-03-23T04:03:05;98965.03;;;8.14;84.14
85511;BME280;75921;51.616;11.880;2024-03-23T04:05:31;98962.75;;;8.11;84.20
85511;BME280;75921;51.616;11.880;2024-03-23T04:07:56;98950.94;;;8.12;83.97
85511;BME280;75921;51.616;11.880;2024-03-23T04:10:21;98951.16;;;8.10;84.13
85511;BME280;75921;51.616;11.880;2024-03-23T04:12:47;98949.91;;;8.13;84.10
85511;BME280;75921;51.616;11.880;2024-03-23T04:15:12;98943.69;;;8.12;83.81
85511;BME280;75921;51.616;11.880;2024-03-23T04:17:38;98936.03;;;8.09;83.99
85511;BME280;75921;51.616;11.880;2024-03-23T04:20:03;98927.31;;;8.07;83.88
85511;BME280;75921;51.616;11.880;2024-03-23T04:22:33;98918.03;;;8.10;83.69
85511;BME280;75921;51.616;11.880;2024-03-23T04:24:59;98911.19;;;8.07;83.78
85511;BME280;75921;51.616;11.880;2024-03-23T04:27:24;98910.16;;;8.08;83.78
85511;BME280;75921;51.616;11.880;2024-03-23T04:29:50;98915.53;;;8.08;83.62
85511;BME280;75921;51.616;11.880;2024-03-23T04:32:16;98927.53;;;8.06;83.91
85511;BME280;75921;51.616;11.880;2024-03-23T04:34:42;98926.03;;;8.03;84.17
85511;BME280;75921;51.616;11.880;2024-03-23T04:37:08;98909.28;;;8.01;83.94
85511;BME280;75921;51.616;11.880;2024-03-23T04:39:33;98907.78;;;7.99;83.98
85511;BME280;75921;51.616;11.880;2024-03-23T04:41:58;98890.22;;;7.96;84.44
85511;BME280;75921;51.616;11.880;2024-03-23T04:44:24;98869.72;;;7.95;84.39
85511;BME280;75921;51.616;11.880;2024-03-23T04:46:49;98864.53;;;7.94;84.72
85511;BME280;75921;51.616;11.880;2024-03-23T04:49:14;98865.53;;;7.93;84.10
85511;BME280;75921;51.616;11.880;2024-03-23T04:51:39;98854.16;;;7.91;84.36
85511;BME280;75921;51.616;11.880;2024-03-23T04:54:06;98845.28;;;7.90;84.10
85511;BME280;75921;51.616;11.880;2024-03-23T04:56:32;98837.22;;;7.90;84.07
85511;BME280;75921;51.616;11.880;2024-03-23T04:58:58;98850.00;;;7.88;84.70
85511;BME280;75921;51.616;11.880;2024-03-23T05:01:27;98861.16;;;7.85;84.45
85511;BME280;75921;51.616;11.880;2024-03-23T05:03:53;98860.72;;;7.81;84.28
85511;BME280;75921;51.616;11.880;2024-03-23T05:06:18;98857.19;;;7.81;84.54
85511;BME280;75921;51.616;11.880;2024-03-23T05:08:44;98841.06;;;7.81;84.55
85511;BME280;75921;51.616;11.880;2024-03-23T05:11:11;98840.81;;;7.76;84.46
85511;BME280;75921;51.616;11.880;2024-03-23T05:13:36;98837.22;;;7.69;84.84
85511;BME280;75921;51.616;11.880;2024-03-23T05:16:01;98836.00;;;7.71;85.03
85511;BME280;75921;51.616;11.880;2024-03-23T05:18:26;98844.66;;;7.67;84.93
85511;BME280;75921;51.616;11.880;2024-03-23T05:20:59;98844.78;;;7.59;84.96
85511;BME280;75921;51.616;11.880;2024-03-23T05:23:25;98839.78;;;7.56;85.01
85511;BME280;75921;51.616;11.880;2024-03-23T05:25:51;98849.53;;;7.57;85.07
85511;BME280;75921;51.616;11.880;2024-03-23T05:28:17;98842.22;;;7.51;85.11
85511;BME280;75921;51.616;11.880;2024-03-23T05:30:42;98837.88;;;7.50;85.14
85511;BME280;75921;51.616;11.880;2024-03-23T05:33:08;98837.69;;;7.51;84.65
85511;BME280;75921;51.616;11.880;2024-03-23T05:35:33;98838.88;;;7.49;84.32
85511;BME280;75921;51.616;11.880;2024-03-23T05:37:58;98836.78;;;7.44;84.50
85511;BME280;75921;51.616;11.880;2024-03-23T05:40:25;98838.25;;;7.47;84.46
85511;BME280;75921;51.616;11.880;2024-03-23T05:42:51;98839.94;;;7.48;84.60
85511;BME280;75921;51.616;11.880;2024-03-23T05:45:18;98836.41;;;7.47;84.79
85511;BME280;75921;51.616;11.880;2024-03-23T05:47:43;98843.63;;;7.47;84.70
85511;BME280;75921;51.616;11.880;2024-03-23T05:50:09;98833.00;;;7.38;84.61
85511;BME280;75921;51.616;11.880;2024-03-23T05:52:37;98834.75;;;7.46;84.28
85511;BME280;75921;51.616;11.880;2024-03-23T05:55:02;98825.19;;;7.44;84.66
85511;BME280;75921;51.616;11.880;2024-03-23T05:57:28;98816.56;;;7.48;84.46
85511;BME280;75921;51.616;11.880;2024-03-23T05:59:53;98802.88;;;7.43;84.51
85511;BME280;75921;51.616;11.880;2024-03-23T06:02:19;98789.66;;;7.42;83.92
85511;BME280;75921;51.616;11.880;2024-03-23T06:04:45;98791.31;;;7.43;84.13
85511;BME280;75921;51.616;11.880;2024-03-23T06:07:10;98795.78;;;7.35;84.32
85511;BME280;75921;51.616;11.880;2024-03-23T06:09:39;98801.56;;;7.32;84.18
85511;BME280;75921;51.616;11.880;2024-03-23T06:12:04;98799.81;;;7.25;84.63
85511;BME280;75921;51.616;11.880;2024-03-23T06:14:29;98803.63;;;7.16;84.45
85511;BME280;75921;51.616;11.880;2024-03-23T06:16:55;98809.19;;;7.14;84.35
85511;BME280;75921;51.616;11.880;2024-03-23T06:19:20;98813.94;;;7.12;84.14
85511;BME280;75921;51.616;11.880;2024-03-23T06:21:45;98809.31;;;7.06;84.49
85511;BME280;75921;51.616;11.880;2024-03-23T06:24:11;98797.91;;;7.04;84.25
85511;BME280;75921;51.616;11.880;2024-03-23T06:26:36;98801.44;;;7.05;84.09
85511;BME280;75921;51.616;11.880;2024-03-23T06:29:01;98790.91;;;7.03;84.16
85511;BME280;75921;51.616;11.880;2024-03-23T06:31:27;98798.31;;;7.01;84.65
85511;BME280;75921;51.616;11.880;2024-03-23T06:33:55;98812.19;;;7.05;84.48
85511;BME280;75921;51.616;11.880;2024-03-23T06:36:20;98804.81;;;6.92;84.66
85511;BME280;75921;51.616;11.880;2024-03-23T06:38:45;98803.28;;;6.83;84.82
85511;BME280;75921;51.616;11.880;2024-03-23T06:41:10;98796.97;;;6.76;85.21
85511;BME280;75921;51.616;11.880;2024-03-23T06:43:36;98800.69;;;6.75;84.98
85511;BME280;75921;51.616;11.880;2024-03-23T06:46:03;98803.22;;;6.62;85.41
85511;BME280;75921;51.616;11.880;2024-03-23T06:48:29;98793.59;;;6.52;85.48
85511;BME280;75921;51.616;11.880;2024-03-23T06:50:57;98796.75;;;6.41;84.92
85511;BME280;75921;51.616;11.880;2024-03-23T06:53:23;98797.47;;;6.35;85.02
85511;BME280;75921;51.616;11.880;2024-03-23T06:55:52;98796.84;;;6.33;84.54
85511;BME280;75921;51.616;11.880;2024-03-23T06:58:23;98804.25;;;6.31;84.91
85511;BME280;75921;51.616;11.880;2024-03-23T07:00:49;98819.88;;;6.28;84.33
85511;BME280;75921;51.616;11.880;2024-03-23T07:03:15;98830.50;;;6.21;83.92
85511;BME280;75921;51.616;11.880;2024-03-23T07:05:40;98825.50;;;6.18;84.21
85511;BME280;75921;51.616;11.880;2024-03-23T07:08:05;98834.84;;;6.22;83.64
85511;BME280;75921;51.616;11.880;2024-03-23T07:10:31;98830.31;;;6.08;84.07
85511;BME280;75921;51.616;11.880;2024-03-23T07:12:56;98839.91;;;6.02;84.20
85511;BME280;75921;51.616;11.880;2024-03-23T07:15:21;98841.47;;;5.97;83.79
85511;BME280;75921;51.616;11.880;2024-03-23T07:17:47;98843.22;;;5.90;84.46
85511;BME280;75921;51.616;11.880;2024-03-23T07:20:13;98836.94;;;5.97;83.62
85511;BME280;75921;51.616;11.880;2024-03-23T07:22:38;98840.34;;;5.91;83.25
85511;BME280;75921;51.616;11.880;2024-03-23T07:25:05;98836.59;;;5.78;84.08
85511;BME280;75921;51.616;11.880;2024-03-23T07:27:31;98843.63;;;5.79;82.83
85511;BME280;75921;51.616;11.880;2024-03-23T07:29:56;98846.84;;;5.74;83.16
85511;BME280;75921;51.616;11.880;2024-03-23T07:32:21;98850.19;;;5.76;83.85
85511;BME280;75921;51.616;11.880;2024-03-23T07:34:47;98841.94;;;5.78;82.68
85511;BME280;75921;51.616;11.880;2024-03-23T07:37:12;98830.09;;;5.72;83.46
85511;BME280;75921;51.616;11.880;2024-03-23T07:39:37;98837.34;;;5.72;83.72
85511;BME280;75921;51.616;11.880;2024-03-23T07:42:04;98829.00;;;5.66;83.21
85511;BME280;75921;51.616;11.880;2024-03-23T07:44:29;98840.00;;;5.72;82.72
85511;BME280;75921;51.616;11.880;2024-03-23T07:46:54;98827.97;;;5.67;83.53
85511;BME280;75921;51.616;11.880;2024-03-23T07:49:20;98831.38;;;5.61;83.94
85511;BME280;75921;51.616;11.880;2024-03-23T07:51:45;98819.28;;;5.65;83.53
85511;BME280;75921;51.616;11.880;2024-03-23T07:54:10;98823.34;;;5.61;83.56
85511;BME280;75921;51.616;11.880;2024-03-23T07:56:35;98838.59;;;5.61;83.79
85511;BME280;75921;51.616;11.880;2024-03-23T07:59:01;98845.41;;;5.63;84.35
85511;BME280;75921;51.616;11.880;2024-03-23T08:01:28;98850.88;;;5.47;84.53
85511;BME280;75921;51.616;11.880;2024-03-23T08:03:53;98857.63;;;5.43;85.03
85511;BME280;75921;51.616;11.880;2024-03-23T08:06:20;98864.19;;;5.41;84.87
85511;BME280;75921;51.616;11.880;2024-03-23T08:08:46;98861.66;;;5.39;84.51
85511;BME280;75921;51.616;11.880;2024-03-23T08:11:12;98869.22;;;5.36;84.46
85511;BME280;75921;51.616;11.880;2024-03-23T08:13:40;98873.38;;;5.38;84.23
85511;BME280;75921;51.616;11.880;2024-03-23T08:16:05;98872.56;;;5.38;84.45
85511;BME280;75921;51.616;11.880;2024-03-23T08:18:31;98871.91;;;5.36;84.25
85511;BME280;75921;51.616;11.880;2024-03-23T08:21:03;98866.38;;;5.37;84.75
85511;BME280;75921;51.616;11.880;2024-03-23T08:23:30;98895.53;;;5.32;84.22
85511;BME280;75921;51.616;11.880;2024-03-23T08:25:59;98908.78;;;5.26;85.24
85511;BME280;75921;51.616;11.880;2024-03-23T08:28:26;98881.72;;;5.20;85.06
85511;BME280;75921;51.616;11.880;2024-03-23T08:30:52;98886.53;;;5.25;84.46
85511;BME280;75921;51.616;11.880;2024-03-23T08:33:17;98895.41;;;5.26;84.42
85511;BME280;75921;51.616;11.880;2024-03-23T08:35:43;98892.88;;;5.24;85.03
85511;BME280;75921;51.616;11.880;2024-03-23T08:38:17;98899.00;;;5.10;84.67
85511;BME280;75921;51.616;11.880;2024-03-23T08:40:42;98894.63;;;5.09;85.85
85511;BME280;75921;51.616;11.880;2024-03-23T08:43:08;98903.66;;;5.16;85.62
85511;BME280;75921;51.616;11.880;2024-03-23T08:45:33;98913.34;;;5.17;85.20
85511;BME280;75921;51.616;11.880;2024-03-23T08:47:58;98921.06;;;5.12;84.61
85511;BME280;75921;51.616;11.880;2024-03-23T08:50:23;98913.47;;;5.23;84.87
85511;BME280;75921;51.616;11.880;2024-03-23T08:52:50;98923.13;;;5.02;86.30
85511;BME280;75921;51.616;11.880;2024-03-23T08:55:16;98931.09;;;5.10;85.51
85511;BME280;75921;51.616;11.880;2024-03-23T08:57:41;98940.81;;;5.11;85.35
85511;BME280;75921;51.616;11.880;2024-03-23T09:00:06;98941.16;;;5.08;86.06
85511;BME280;75921;51.616;11.880;2024-03-23T09:02:34;98951.50;;;5.11;85.46
85511;BME280;75921;51.616;11.880;2024-03-23T09:04:59;98942.97;;;5.15;84.89
85511;BME280;75921;51.616;11.880;2024-03-23T09:07:32;98941.84;;;5.02;86.53
85511;BME280;75921;51.616;11.880;2024-03-23T09:09:57;98941.59;;;4.89;86.38
85511;BME280;75921;51.616;11.880;2024-03-23T09:12:23;98944.19;;;5.05;86.04
85511;BME280;75921;51.616;11.880;2024-03-23T09:14:49;98942.81;;;5.09;85.52
85511;BME280;75921;51.616;11.880;2024-03-23T09:17:15;98933.47;;;5.05;85.79
85511;BME280;75921;51.616;11.880;2024-03-23T09:19:40;98950.88;;;5.01;86.05
85511;BME280;75921;51.616;11.880;2024-03-23T09:22:05;98954.09;;;4.96;86.14
85511;BME280;75921;51.616;11.880;2024-03-23T09:24:30;98967.09;;;4.99;85.73
85511;BME280;75921;51.616;11.880;2024-03-23T09:26:57;98981.03;;;4.87;86.54
85511;BME280;75921;51.616;11.880;2024-03-23T09:29:22;98972.66;;;4.98;85.06
85511;BME280;75921;51.616;11.880;2024-03-23T09:31:47;98984.06;;;4.75;87.33
85511;BME280;75921;51.616;11.880;2024-03-23T09:34:12;98997.41;;;4.92;87.15
85511;BME280;75921;51.616;11.880;2024-03-23T09:36:38;99001.50;;;4.47;89.12
85511;BME280;75921;51.616;11.880;2024-03-23T09:39:03;99006.50;;;4.66;88.01
85511;BME280;75921;51.616;11.880;2024-03-23T09:41:30;99011.53;;;4.37;89.41
85511;BME280;75921;51.616;11.880;2024-03-23T09:43:55;99018.53;;;4.62;88.30
85511;BME280;75921;51.616;11.880;2024-03-23T09:46:21;99018.84;;;4.75;87.38
85511;BME280;75921;51.616;11.880;2024-03-23T09:48:46;99015.88;;;4.62;88.87
85511;BME280;75921;51.616;11.880;2024-03-23T09:51:12;99015.34;;;4.75;87.79
85511;BME280;75921;51.616;11.880;2024-03-23T09:53:37;99037.59;;;4.51;89.27
85511;BME280;75921;51.616;11.880;2024-03-23T09:56:04;99042.25;;;4.65;88.39
85511;BME280;75921;51.616;11.880;2024-03-23T09:58:29;99053.31;;;4.78;87.13
85511;BME280;75921;51.616;11.880;2024-03-23T10:00:54;99034.91;;;4.67;88.49
85511;BME280;75921;51.616;11.880;2024-03-23T10:03:19;99036.09;;;4.57;87.40
85511;BME280;75921;51.616;11.880;2024-03-23T10:05:45;99043.59;;;4.69;87.63
85511;BME280;75921;51.616;11.880;2024-03-23T10:10:38;99049.31;;;4.58;88.31
85511;BME280;75921;51.616;11.880;2024-03-23T10:13:04;99056.84;;;4.39;89.14
85511;BME280;75921;51.616;11.880;2024-03-23T10:15:29;99055.34;;;4.44;88.90
85511;BME280;75921;51.616;11.880;2024-03-23T10:17:54;99063.00;;;4.31;88.34
85511;BME280;75921;51.616;11.880;2024-03-23T10:20:21;99067.84;;;4.27;89.91
85511;BME280;75921;51.616;11.880;2024-03-23T10:22:48;99080.06;;;4.38;87.73
85511;BME280;75921;51.616;11.880;2024-03-23T10:25:14;99079.22;;;4.38;89.32
85511;BME280;75921;51.616;11.880;2024-03-23T10:27:39;99094.06;;;4.40;88.05
85511;BME280;75921;51.616;11.880;2024-03-23T10:30:12;99081.38;;;4.50;87.47
85511;BME280;75921;51.616;11.880;2024-03-23T10:32:38;99086.41;;;4.29;86.90
85511;BME280;75921;51.616;11.880;2024-03-23T10:35:20;99090.41;;;4.41;89.24
85511;BME280;75921;51.616;11.880;2024-03-23T10:37:47;99092.09;;;4.34;88.18
85511;BME280;75921;51.616;11.880;2024-03-23T10:40:15;99099.22;;;4.25;90.10
85511;BME280;75921;51.616;11.880;2024-03-23T10:42:41;99111.44;;;4.36;88.52
85511;BME280;75921;51.616;11.880;2024-03-23T10:45:07;99104.28;;;4.28;89.82
85511;BME280;75921;51.616;11.880;2024-03-23T10:47:35;99116.09;;;4.10;88.19
85511;BME280;75921;51.616;11.880;2024-03-23T10:50:01;99105.06;;;4.05;90.72
85511;BME280;75921;51.616;11.880;2024-03-23T10:52:27;99107.06;;;4.11;90.97
85511;BME280;75921;51.616;11.880;2024-03-23T10:54:52;99117.09;;;4.01;89.96
85511;BME280;75921;51.616;11.880;2024-03-23T10:57:21;99112.88;;;3.98;90.20
85511;BME280;75921;51.616;11.880;2024-03-23T10:59:48;99112.72;;;4.00;90.01
85511;BME280;75921;51.616;11.880;2024-03-23T11:02:21;99110.38;;;3.97;91.13
85511;BME280;75921;51.616;11.880;2024-03-23T11:04:47;99113.38;;;3.93;89.60
85511;BME280;75921;51.616;11.880;2024-03-23T11:07:31;99111.75;;;4.09;91.05
85511;BME280;75921;51.616;11.880;2024-03-23T11:09:57;99107.44;;;4.24;90.99
85511;BME280;75921;51.616;11.880;2024-03-23T11:14:49;99112.31;;;4.53;89.53
85511;BME280;75921;51.616;11.880;2024-03-23T11:17:22;99126.03;;;4.58;89.93
85511;BME280;75921;51.616;11.880;2024-03-23T11:20:01;99115.81;;;4.53;89.41
85511;BME280;75921;51.616;11.880;2024-03-23T11:22:44;99099.59;;;4.71;87.09
85511;BME280;75921;51.616;11.880;2024-03-23T11:25:23;99102.91;;;4.89;89.68
85511;BME280;75921;51.616;11.880;2024-03-23T11:27:56;99097.94;;;4.86;84.35
85511;BME280;75921;51.616;11.880;2024-03-23T11:30:26;99108.63;;;5.02;86.71
85511;BME280;75921;51.616;11.880;2024-03-23T11:32:57;99104.41;;;5.16;86.82
85511;BME280;75921;51.616;11.880;2024-03-23T11:35:33;99082.00;;;5.09;87.15
85511;BME280;75921;51.616;11.880;2024-03-23T11:38:10;99095.19;;;5.18;85.17
85511;BME280;75921;51.616;11.880;2024-03-23T11:40:37;99102.22;;;5.28;85.91
85511;BME280;75921;51.616;11.880;2024-03-23T11:43:04;99089.63;;;5.36;85.39
85511;BME280;75921;51.616;11.880;2024-03-23T11:45:35;99087.59;;;5.46;83.58
85511;BME280;75921;51.616;11.880;2024-03-23T11:50:41;99074.19;;;5.46;85.46
85511;BME280;75921;51.616;11.880;2024-03-23T11:53:21;99072.53;;;5.45;84.66
85511;BME280;75921;51.616;11.880;2024-03-23T11:55:51;99069.16;;;5.43;83.33
85511;BME280;75921;51.616;11.880;2024-03-23T11:58:18;99065.06;;;5.63;85.73
85511;BME280;75921;51.616;11.880;2024-03-23T12:03:19;99060.22;;;5.98;85.18
85511;BME280;75921;51.616;11.880;2024-03-23T12:05:52;99053.19;;;5.97;84.46
85511;BME280;75921;51.616;11.880;2024-03-23T12:08:32;99046.78;;;6.06;85.58
85511;BME280;75921;51.616;11.880;2024-03-23T12:11:11;99054.94;;;6.13;82.94
85511;BME280;75921;51.616;11.880;2024-03-23T12:13:37;99051.75;;;6.40;85.14
85511;BME280;75921;51.616;11.880;2024-03-23T12:18:35;99052.59;;;6.78;81.63
85511;BME280;75921;51.616;11.880;2024-03-23T12:21:00;99053.09;;;7.25;80.45
85511;BME280;75921;51.616;11.880;2024-03-23T12:23:26;99047.16;;;7.45;78.89
85511;BME280;75921;51.616;11.880;2024-03-23T12:25:51;99042.78;;;7.58;80.37
85511;BME280;75921;51.616;11.880;2024-03-23T12:28:16;99034.31;;;7.91;79.02
85511;BME280;75921;51.616;11.880;2024-03-23T12:30:42;99020.06;;;8.33;77.90
85511;BME280;75921;51.616;11.880;2024-03-23T12:33:07;99015.03;;;8.72;79.32
85511;BME280;75921;51.616;11.880;2024-03-23T12:35:33;99009.16;;;8.19;76.28
85511;BME280;75921;51.616;11.880;2024-03-23T12:37:58;99002.94;;;7.76;77.57
85511;BME280;75921;51.616;11.880;2024-03-23T12:40:23;99002.44;;;7.37;77.49
85511;BME280;75921;51.616;11.880;2024-03-23T12:42:49;98996.31;;;7.28;80.60
85511;BME280;75921;51.616;11.880;2024-03-23T12:45:14;98991.22;;;7.33;80.85
85511;BME280;75921;51.616;11.880;2024-03-23T12:47:40;98999.66;;;7.30;77.16
85511;BME280;75921;51.616;11.880;2024-03-23T12:50:05;99006.88;;;7.30;73.30
85511;BME280;75921;51.616;11.880;2024-03-23T12:52:31;99006.78;;;7.23;70.86
85511;BME280;75921;51.616;11.880;2024-03-23T12:54:57;99017.16;;;7.12;71.76
85511;BME280;75921;51.616;11.880;2024-03-23T12:57:25;99067.25;;;7.05;73.08
85511;BME280;75921;51.616;11.880;2024-03-23T12:59:54;99091.78;;;6.19;81.00
85511;BME280;75921;51.616;11.880;2024-03-23T13:02:20;99092.69;;;6.03;82.31
85511;BME280;75921;51.616;11.880;2024-03-23T13:04:53;99088.88;;;5.97;82.80
85511;BME280;75921;51.616;11.880;2024-03-23T13:07:19;99080.38;;;5.86;82.88
85511;BME280;75921;51.616;11.880;2024-03-23T13:09:45;99072.88;;;5.81;83.21
85511;BME280;75921;51.616;11.880;2024-03-23T13:12:10;99065.34;;;5.77;82.41
85511;BME280;75921;51.616;11.880;2024-03-23T13:14:39;99048.94;;;5.80;81.56
85511;BME280;75921;51.616;11.880;2024-03-23T13:17:05;99031.34;;;5.77;81.79
85511;BME280;75921;51.616;11.880;2024-03-23T13:19:32;99038.22;;;6.11;75.95
85511;BME280;75921;51.616;11.880;2024-03-23T13:21:58;99040.75;;;6.27;79.15
85511;BME280;75921;51.616;11.880;2024-03-23T13:24:24;99037.91;;;6.28;76.32
85511;BME280;75921;51.616;11.880;2024-03-23T13:26:51;99055.00;;;6.27;79.63
85511;BME280;75921;51.616;11.880;2024-03-23T13:29:17;99065.13;;;6.17;80.03
85511;BME280;75921;51.616;11.880;2024-03-23T13:31:42;99074.34;;;5.92;79.24
85511;BME280;75921;51.616;11.880;2024-03-23T13:34:07;99052.59;;;5.48;79.57
85511;BME280;75921;51.616;11.880;2024-03-23T13:36:33;99069.78;;;5.14;80.62
85511;BME280;75921;51.616;11.880;2024-03-23T13:38:58;99057.09;;;5.00;84.02
85511;BME280;75921;51.616;11.880;2024-03-23T13:41:24;99056.94;;;5.02;81.63
85511;BME280;75921;51.616;11.880;2024-03-23T13:43:49;99050.19;;;5.14;82.10
85511;BME280;75921;51.616;11.880;2024-03-23T13:46:15;99041.53;;;5.12;82.99
85511;BME280;75921;51.616;11.880;2024-03-23T13:48:40;99054.34;;;5.63;78.35
85511;BME280;75921;51.616;11.880;2024-03-23T13:51:07;99073.22;;;5.39;79.32
85511;BME280;75921;51.616;11.880;2024-03-23T13:53:32;99086.94;;;5.36;75.47
85511;BME280;75921;51.616;11.880;2024-03-23T13:55:58;99086.56;;;5.47;76.36
85511;BME280;75921;51.616;11.880;2024-03-23T13:58:23;99100.03;;;5.23;79.46
85511;BME280;75921;51.616;11.880;2024-03-23T14:00:50;99091.56;;;5.03;80.92